createdAt,value
2022-11-28T00:02:00.234Z,68.32
2022-11-28T00:04:34.556Z,67.93
2022-11-28T00:07:07.882Z,68.46
2022-11-28T00:09:40.880Z,67.87
2022-11-28T00:12:13.751Z,68.47
2022-11-28T00:14:46.609Z,68.09
2022-11-28T00:17:19.493Z,68.50
2022-11-28T00:19:53.758Z,68.45
2022-11-28T00:22:27.975Z,68.35
2022-11-28T00:25:00.798Z,68.39
2022-11-28T00:27:35.376Z,68.45
2022-11-28T00:30:09.478Z,68.14
2022-11-28T00:32:42.261Z,68.41
2022-11-28T00:35:16.586Z,68.35
2022-11-28T00:37:49.398Z,68.12
2022-11-28T00:40:22.603Z,68.46
2022-11-28T00:42:55.393Z,68.36
2022-11-28T00:45:28.239Z,67.94
2022-11-28T00:48:01.135Z,68.24
2022-11-28T00:50:35.348Z,68.06
2022-11-28T00:53:08.138Z,68.25
2022-11-28T00:55:41.077Z,67.92
2022-11-28T00:58:13.940Z,68.24
2022-11-28T01:00:46.851Z,68.14
2022-11-28T01:03:19.713Z,68.02
2022-11-28T01:05:53.910Z,68.05
2022-11-28T01:08:26.705Z,68.01
2022-11-28T01:10:59.593Z,68.02
2022-11-28T01:13:32.520Z,68.12
2022-11-28T01:16:05.663Z,68.11
2022-11-28T01:18:39.117Z,68.35
2022-11-28T01:21:13.380Z,67.87
2022-11-28T01:23:46.202Z,68.04
2022-11-28T01:26:20.867Z,68.02
2022-11-28T01:28:54.433Z,67.79
2022-11-28T01:31:29.240Z,67.88
2022-11-28T01:34:02.097Z,67.83
2022-11-28T01:36:36.407Z,67.95
2022-11-28T01:39:10.558Z,67.46
2022-11-28T01:41:43.746Z,67.89
2022-11-28T01:44:53.700Z,67.46
2022-11-28T01:47:29.108Z,67.55
2022-11-28T01:50:02.771Z,67.69
2022-11-28T01:52:39.034Z,67.42
2022-11-28T01:55:13.992Z,67.75
2022-11-28T01:57:46.844Z,67.90
2022-11-28T02:00:21.623Z,67.57
2022-11-28T02:03:00.741Z,68.05
2022-11-28T02:05:34.349Z,67.67
2022-11-28T02:08:10.392Z,67.85
2022-11-28T02:11:03.476Z,68.07
2022-11-28T02:13:46.069Z,68.06
2022-11-28T02:16:35.088Z,68.10
2022-11-28T02:19:31.634Z,67.83
2022-11-28T02:22:09.287Z,68.15
2022-11-28T02:25:03.189Z,68.16
2022-11-28T02:28:12.817Z,68.24
2022-11-28T02:30:59.738Z,67.80
2022-11-28T02:33:37.029Z,68.30
2022-11-28T02:36:14.920Z,67.94
2022-11-28T02:38:58.975Z,68.21
2022-11-28T02:41:38.332Z,68.11
2022-11-28T02:44:15.058Z,68.34
2022-11-28T02:46:55.273Z,68.12
2022-11-28T02:49:35.668Z,68.26
2022-11-28T02:52:13.449Z,68.20
2022-11-28T02:54:47.701Z,68.60
2022-11-28T02:57:20.644Z,68.52
2022-11-28T02:59:55.507Z,68.59
2022-11-28T03:02:31.935Z,68.33
2022-11-28T03:05:15.310Z,68.42
2022-11-28T03:08:02.150Z,68.17
2022-11-28T03:10:46.138Z,68.39
2022-11-28T03:13:23.927Z,68.33
2022-11-28T03:16:11.783Z,68.16
2022-11-28T03:18:56.400Z,68.06
2022-11-28T03:21:40.036Z,67.99
2022-11-28T03:24:20.365Z,68.39
2022-11-28T03:26:57.265Z,68.43
2022-11-28T03:29:38.181Z,68.70
2022-11-28T03:32:14.900Z,68.31
2022-11-28T03:34:53.107Z,68.58
2022-11-28T03:37:30.753Z,68.87
2022-11-28T03:40:07.225Z,68.42
2022-11-28T03:42:44.726Z,68.10
2022-11-28T03:45:23.458Z,68.47
2022-11-28T03:48:00.470Z,68.21
2022-11-28T03:50:37.880Z,68.04
2022-11-28T03:53:18.717Z,67.87
2022-11-28T03:55:56.803Z,68.04
2022-11-28T03:58:35.879Z,68.38
2022-11-28T04:01:13.355Z,68.17
2022-11-28T04:03:53.130Z,68.05
2022-11-28T04:06:31.158Z,67.84
2022-11-28T04:09:14.347Z,67.98
2022-11-28T04:11:52.612Z,67.94
2022-11-28T04:14:30.502Z,67.83
2022-11-28T04:17:09.375Z,68.37
2022-11-28T04:19:46.319Z,68.07
2022-11-28T04:22:22.678Z,67.83
2022-11-28T04:25:00.982Z,68.09
2022-11-28T04:27:38.843Z,67.88
2022-11-28T04:30:14.007Z,67.71
2022-11-28T04:32:49.995Z,68.35
2022-11-28T04:35:28.073Z,67.89
2022-11-28T04:38:02.910Z,68.29
2022-11-28T04:40:41.827Z,67.97
2022-11-28T04:43:22.000Z,68.25
2022-11-28T04:46:00.790Z,68.61
2022-11-28T04:48:34.673Z,67.91
2022-11-28T04:51:16.035Z,68.01
2022-11-28T04:53:54.121Z,68.08
2022-11-28T04:56:34.069Z,68.22
2022-11-28T04:59:08.378Z,68.82
2022-11-28T05:01:44.809Z,68.62
2022-11-28T05:04:18.156Z,68.34
2022-11-28T05:06:51.053Z,68.46
2022-11-28T05:09:23.828Z,68.74
2022-11-28T05:11:58.015Z,68.47
2022-11-28T05:14:30.976Z,68.79
2022-11-28T05:17:03.799Z,68.35
2022-11-28T05:19:36.647Z,68.77
2022-11-28T05:22:09.497Z,68.54
2022-11-28T05:24:42.278Z,68.76
2022-11-28T05:27:16.652Z,68.87
2022-11-28T05:29:52.360Z,68.56
2022-11-28T05:32:25.266Z,68.68
2022-11-28T05:34:58.251Z,68.37
2022-11-28T05:37:31.092Z,68.79
2022-11-28T05:40:04.674Z,68.81
2022-11-28T05:42:38.956Z,68.63
2022-11-28T05:45:11.968Z,68.57
2022-11-28T05:47:44.731Z,68.75
2022-11-28T05:50:17.625Z,68.32
2022-11-28T05:52:50.458Z,68.20
2022-11-28T05:55:23.265Z,68.65
2022-11-28T05:57:57.955Z,68.68
2022-11-28T06:00:31.123Z,68.71
2022-11-28T06:03:05.363Z,68.74
2022-11-28T06:05:43.083Z,68.31
2022-11-28T06:08:16.673Z,68.37
2022-11-28T06:10:57.522Z,68.22
2022-11-28T06:13:31.766Z,68.71
2022-11-28T06:16:08.681Z,68.87
2022-11-28T06:18:42.813Z,68.41
2022-11-28T06:21:16.945Z,68.62
2022-11-28T06:23:50.506Z,68.30
2022-11-28T06:26:24.953Z,68.83
2022-11-28T06:28:59.448Z,68.26
2022-11-28T06:31:32.621Z,68.40
2022-11-28T06:34:05.585Z,68.30
2022-11-28T06:36:38.369Z,68.82
2022-11-28T06:39:13.398Z,68.26
2022-11-28T06:41:46.324Z,68.91
2022-11-28T06:44:20.528Z,68.48
2022-11-28T06:46:54.558Z,68.78
2022-11-28T06:49:27.360Z,68.41
2022-11-28T06:52:00.186Z,68.35
2022-11-28T06:54:33.045Z,68.29
2022-11-28T06:57:05.833Z,69.03
2022-11-28T06:59:40.232Z,68.66
2022-11-28T07:02:13.185Z,68.62
2022-11-28T07:04:46.277Z,68.85
2022-11-28T07:07:19.172Z,68.84
2022-11-28T07:09:52.189Z,68.83
2022-11-28T07:12:24.970Z,69.48
2022-11-28T07:14:59.153Z,69.37
2022-11-28T07:17:32.011Z,69.51
2022-11-28T07:20:05.506Z,69.42
2022-11-28T07:22:38.342Z,69.03
2022-11-28T07:25:11.441Z,69.11
2022-11-28T07:27:44.311Z,69.38
2022-11-28T07:30:20.075Z,68.98
2022-11-28T07:32:53.017Z,69.76
2022-11-28T07:35:25.831Z,69.40
2022-11-28T07:37:58.632Z,69.02
2022-11-28T07:40:31.578Z,69.52
2022-11-28T07:43:04.573Z,69.42
2022-11-28T07:45:59.291Z,68.92
2022-11-28T07:48:32.710Z,69.21
2022-11-28T07:51:11.297Z,68.98
2022-11-28T07:53:45.005Z,69.37
2022-11-28T07:56:19.415Z,69.36
2022-11-28T07:58:52.749Z,69.17
2022-11-28T08:01:29.278Z,69.30
2022-11-28T08:04:02.502Z,69.30
2022-11-28T08:06:39.242Z,69.58
2022-11-28T08:09:13.097Z,69.46
2022-11-28T08:11:45.891Z,69.48
2022-11-28T08:14:18.684Z,69.25
2022-11-28T08:16:53.028Z,69.20
2022-11-28T08:19:27.341Z,69.44
2022-11-28T08:22:02.254Z,69.25
2022-11-28T08:24:35.167Z,69.35
2022-11-28T08:27:08.790Z,69.17
2022-11-28T08:29:41.959Z,68.96
2022-11-28T08:32:16.384Z,69.33
2022-11-28T08:34:49.211Z,69.50
2022-11-28T08:37:22.064Z,69.08
2022-11-28T08:39:54.877Z,69.37
2022-11-28T08:42:29.337Z,69.30
2022-11-28T08:45:02.183Z,69.33
2022-11-28T08:47:36.453Z,69.49
2022-11-28T08:50:09.662Z,69.40
2022-11-28T08:52:42.528Z,69.45
2022-11-28T08:55:15.358Z,68.99
2022-11-28T08:57:48.202Z,69.48
2022-11-28T09:00:22.068Z,69.21
2022-11-28T09:02:56.347Z,68.83
2022-11-28T09:05:29.744Z,68.86
2022-11-28T09:08:02.566Z,68.62
2022-11-28T09:10:37.812Z,68.39
2022-11-28T09:13:11.410Z,68.37
2022-11-28T09:15:47.394Z,68.02
2022-11-28T09:18:24.365Z,68.40
2022-11-28T09:21:00.979Z,68.47
2022-11-28T09:23:33.809Z,68.15
2022-11-28T09:26:09.510Z,67.81
2022-11-28T09:28:42.644Z,68.04
2022-11-28T09:31:17.118Z,68.11
2022-11-28T09:33:51.466Z,67.74
2022-11-28T09:36:25.437Z,68.16
2022-11-28T09:39:00.961Z,67.79
2022-11-28T09:41:45.301Z,67.41
2022-11-28T09:44:24.150Z,67.81
2022-11-28T09:47:01.606Z,67.73
2022-11-28T09:49:43.438Z,67.50
2022-11-28T09:52:26.135Z,67.28
2022-11-28T09:55:07.539Z,67.59
2022-11-28T09:57:43.369Z,67.93
2022-11-28T10:00:18.838Z,66.80
2022-11-28T10:03:03.873Z,66.81
2022-11-28T10:05:44.854Z,66.50
2022-11-28T10:08:26.874Z,66.73
2022-11-28T10:11:04.646Z,66.72
2022-11-28T10:14:07.214Z,66.54
2022-11-28T10:16:53.008Z,66.00
2022-11-28T10:22:36.588Z,66.44
2022-11-28T10:25:17.800Z,66.63
2022-11-28T10:27:51.490Z,66.55
2022-11-28T10:30:26.294Z,66.67
2022-11-28T10:33:05.915Z,66.59
2022-11-28T10:35:45.927Z,66.29
2022-11-28T10:38:25.557Z,66.09
2022-11-28T10:41:04.951Z,66.55
2022-11-28T10:43:45.166Z,66.15
2022-11-28T10:46:32.311Z,65.78
2022-11-28T10:49:18.257Z,66.43
2022-11-28T10:51:59.177Z,65.68
2022-11-28T10:54:47.255Z,65.55
2022-11-28T10:57:25.251Z,65.56
2022-11-28T11:00:08.389Z,65.70
2022-11-28T11:02:46.080Z,65.37
2022-11-28T11:05:20.848Z,65.18
2022-11-28T11:07:55.482Z,65.53
2022-11-28T11:10:33.949Z,65.66
2022-11-28T11:13:15.644Z,65.34
2022-11-28T11:15:51.097Z,65.12
2022-11-28T11:18:27.817Z,64.85
2022-11-28T11:21:11.090Z,64.95
2022-11-28T11:23:44.670Z,65.74
2022-11-28T11:26:30.007Z,65.11
2022-11-28T11:29:05.549Z,65.14
2022-11-28T11:31:45.247Z,64.36
2022-11-28T11:34:19.220Z,65.18
2022-11-28T11:36:53.253Z,65.03
2022-11-28T11:39:26.200Z,64.81
2022-11-28T11:42:20.612Z,64.58
2022-11-28T11:44:53.602Z,65.32
2022-11-28T11:47:42.494Z,64.58
2022-11-28T11:50:19.605Z,64.67
2022-11-28T11:53:07.890Z,64.01
2022-11-28T11:55:47.374Z,64.00
2022-11-28T11:58:24.868Z,63.81
2022-11-28T12:01:00.871Z,63.61
2022-11-28T12:03:40.867Z,63.22
2022-11-28T12:06:18.780Z,63.79
2022-11-28T12:08:53.787Z,63.53
2022-11-28T12:11:30.875Z,63.52
2022-11-28T12:14:27.030Z,62.83
2022-11-28T12:20:30.705Z,62.95
2022-11-28T12:26:16.375Z,62.60
2022-11-28T12:29:06.147Z,62.79
2022-11-28T12:31:48.872Z,62.70
2022-11-28T12:34:35.008Z,63.00
2022-11-28T12:37:17.332Z,62.82
2022-11-28T12:40:01.758Z,63.19
2022-11-28T12:42:46.083Z,62.88
2022-11-28T12:45:34.368Z,63.51
2022-11-28T12:48:23.328Z,62.89
2022-11-28T12:51:03.712Z,63.36
2022-11-28T12:53:51.959Z,63.00
2022-11-28T12:56:38.251Z,63.24
2022-11-28T12:59:23.128Z,62.78
2022-11-28T13:02:09.359Z,62.78
2022-11-28T13:05:07.792Z,63.20
2022-11-28T13:07:49.171Z,62.87
2022-11-28T13:10:28.584Z,62.91
2022-11-28T13:13:07.269Z,63.44
2022-11-28T13:15:51.964Z,63.36
2022-11-28T13:18:38.287Z,62.59
2022-11-28T13:21:33.478Z,62.58
2022-11-28T13:24:13.465Z,62.71
2022-11-28T13:26:58.757Z,63.07
2022-11-28T13:29:37.559Z,63.40
2022-11-28T13:32:20.507Z,62.96
2022-11-28T13:34:53.640Z,63.20
2022-11-28T13:40:34.629Z,63.20
2022-11-28T13:43:15.832Z,63.40
2022-11-28T13:45:49.146Z,63.54
2022-11-28T13:49:15.457Z,63.11
2022-11-28T13:52:40.214Z,62.97
2022-11-28T13:55:44.777Z,62.75
2022-11-28T13:58:25.262Z,62.59
2022-11-28T14:01:11.283Z,62.97
2022-11-28T14:03:49.193Z,62.44
2022-11-28T14:06:25.067Z,62.90
2022-11-28T14:09:06.134Z,62.83
2022-11-28T14:12:07.811Z,62.94
2022-11-28T14:14:58.733Z,63.00
2022-11-28T14:17:48.663Z,62.69
2022-11-28T14:20:30.601Z,63.21
2022-11-28T14:23:11.884Z,64.01
2022-11-28T14:25:46.961Z,63.74
2022-11-28T14:28:26.506Z,63.49
2022-11-28T14:31:06.474Z,63.76
2022-11-28T14:33:42.512Z,63.62
2022-11-28T14:36:34.728Z,63.77
2022-11-28T14:39:12.256Z,63.85
2022-11-28T14:42:59.027Z,63.40
2022-11-28T14:45:38.654Z,64.60
2022-11-28T14:48:29.863Z,63.72
2022-11-28T14:51:02.881Z,64.15
2022-11-28T14:53:46.619Z,63.15
2022-11-28T14:56:26.888Z,63.29
2022-11-28T14:59:03.435Z,63.91
2022-11-28T15:01:52.563Z,63.57
2022-11-28T15:04:52.221Z,63.37
2022-11-28T15:07:36.681Z,63.87
2022-11-28T15:10:11.652Z,64.11
2022-11-28T15:12:56.390Z,63.87
2022-11-28T15:15:29.705Z,64.33
2022-11-28T15:18:06.470Z,64.53
2022-11-28T15:20:48.092Z,64.68
2022-11-28T15:23:25.628Z,64.58
2022-11-28T15:26:00.004Z,64.67
2022-11-28T15:28:35.510Z,64.84
2022-11-28T15:31:08.327Z,64.50
2022-11-28T15:33:41.216Z,64.58
2022-11-28T15:36:26.425Z,64.63
2022-11-28T15:38:59.304Z,64.95
2022-11-28T15:41:32.332Z,65.46
2022-11-28T15:44:05.259Z,64.86
2022-11-28T15:46:38.514Z,65.08
2022-11-28T15:49:24.539Z,65.31
2022-11-28T15:52:01.472Z,65.30
2022-11-28T15:54:37.945Z,65.15
2022-11-28T15:57:19.879Z,65.71
2022-11-28T15:59:52.735Z,65.18
2022-11-28T16:02:29.959Z,66.12
2022-11-28T16:05:09.018Z,65.66
2022-11-28T16:07:45.130Z,65.42
2022-11-28T16:10:23.087Z,65.88
2022-11-28T16:13:02.934Z,65.80
2022-11-28T16:15:35.968Z,65.99
2022-11-28T16:18:14.120Z,65.88
2022-11-28T16:20:48.001Z,66.05
2022-11-28T16:23:34.561Z,66.39
2022-11-28T16:26:20.638Z,65.96
2022-11-28T16:29:01.318Z,66.06
2022-11-28T16:31:35.053Z,66.03
2022-11-28T16:34:13.601Z,66.23
2022-11-28T16:36:48.755Z,66.26
2022-11-28T16:39:23.083Z,66.27
2022-11-28T16:42:08.322Z,66.11
2022-11-28T16:44:41.220Z,66.36
2022-11-28T16:47:33.183Z,66.56
2022-11-28T16:50:19.917Z,66.76
2022-11-28T16:52:54.415Z,65.99
2022-11-28T16:55:44.333Z,66.33
2022-11-28T16:58:19.851Z,66.38
2022-11-28T17:01:01.338Z,66.38
2022-11-28T17:03:51.867Z,66.72
2022-11-28T17:06:28.598Z,67.15
2022-11-28T17:09:02.227Z,66.88
2022-11-28T17:11:38.758Z,66.74
2022-11-28T17:14:13.887Z,66.93
2022-11-28T17:16:47.015Z,66.78
2022-11-28T17:19:19.897Z,66.55
2022-11-28T17:21:55.306Z,66.80
2022-11-28T17:24:34.643Z,66.34
2022-11-28T17:27:09.054Z,66.64
2022-11-28T17:29:42.601Z,66.40
2022-11-28T17:32:16.071Z,66.86
2022-11-28T17:34:48.906Z,66.83
2022-11-28T17:37:21.671Z,66.27
2022-11-28T17:40:12.057Z,66.56
2022-11-28T17:42:46.205Z,66.14
2022-11-28T17:45:19.700Z,66.98
2022-11-28T17:47:52.920Z,66.36
2022-11-28T17:50:25.889Z,67.03
2022-11-28T17:52:58.776Z,66.30
2022-11-28T17:55:31.610Z,67.11
2022-11-28T17:58:06.505Z,66.64
2022-11-28T18:00:39.408Z,66.41
2022-11-28T18:03:12.282Z,66.19
2022-11-28T18:05:47.522Z,66.38
2022-11-28T18:08:22.371Z,66.58
2022-11-28T18:11:04.770Z,65.97
2022-11-28T18:13:38.956Z,65.56
2022-11-28T18:16:12.098Z,65.97
2022-11-28T18:18:45.085Z,66.51
2022-11-28T18:21:19.070Z,65.78
2022-11-28T18:23:51.972Z,66.00
2022-11-28T18:26:27.123Z,66.03
2022-11-28T18:29:01.326Z,66.48
2022-11-28T18:31:34.616Z,66.67
2022-11-28T18:34:09.534Z,66.50
2022-11-28T18:36:42.508Z,66.44
2022-11-28T18:39:17.181Z,66.54
2022-11-28T18:41:50.023Z,66.09
2022-11-28T18:44:24.277Z,65.26
2022-11-28T18:46:57.122Z,65.90
2022-11-28T18:49:30.016Z,66.51
2022-11-28T18:52:02.851Z,65.67
2022-11-28T18:54:35.655Z,66.00
2022-11-28T18:57:08.975Z,65.99
2022-11-28T18:59:49.783Z,65.63
2022-11-28T19:02:26.253Z,65.94
2022-11-28T19:04:59.257Z,66.14
2022-11-28T19:07:32.269Z,65.60
2022-11-28T19:10:05.618Z,65.36
2022-11-28T19:12:38.543Z,65.79
2022-11-28T19:15:12.793Z,65.72
2022-11-28T19:17:45.656Z,65.87
2022-11-28T19:20:18.931Z,65.46
2022-11-28T19:22:51.783Z,65.34
2022-11-28T19:25:24.554Z,65.90
2022-11-28T19:27:57.383Z,65.53
2022-11-28T19:30:31.564Z,65.47
2022-11-28T19:33:04.492Z,66.12
2022-11-28T19:35:37.294Z,65.99
2022-11-28T19:38:10.301Z,66.32
2022-11-28T19:40:43.147Z,65.37
2022-11-28T19:43:16.134Z,65.96
2022-11-28T19:45:56.437Z,65.41
2022-11-28T19:48:30.691Z,65.75
2022-11-28T19:51:04.341Z,66.24
2022-11-28T19:53:39.979Z,66.24
2022-11-28T19:56:16.860Z,65.80
2022-11-28T19:58:50.728Z,65.70
2022-11-28T20:01:25.807Z,65.87
2022-11-28T20:03:59.748Z,66.22
2022-11-28T20:06:33.510Z,65.94
2022-11-28T20:09:08.842Z,66.07
2022-11-28T20:11:42.832Z,66.33
2022-11-28T20:14:17.430Z,65.59
2022-11-28T20:16:51.633Z,65.91
2022-11-28T20:19:24.744Z,66.70
2022-11-28T20:21:58.599Z,66.17
2022-11-28T20:24:31.445Z,65.99
2022-11-28T20:27:04.286Z,66.32
2022-11-28T20:29:37.090Z,66.17
2022-11-28T20:32:11.399Z,65.96
2022-11-28T20:34:44.339Z,66.37
2022-11-28T20:37:17.170Z,66.18
2022-11-28T20:39:50.005Z,66.29
2022-11-28T20:42:22.840Z,66.08
2022-11-28T20:44:55.673Z,65.90
2022-11-28T20:47:29.856Z,66.27
2022-11-28T20:50:03.085Z,66.28
2022-11-28T20:52:35.883Z,65.90
2022-11-28T20:55:09.512Z,66.45
2022-11-28T20:57:42.333Z,66.28
2022-11-28T21:00:16.078Z,66.06
2022-11-28T21:02:50.283Z,65.91
2022-11-28T21:05:23.306Z,66.31
2022-11-28T21:07:56.116Z,66.37
2022-11-28T21:10:31.898Z,66.31
2022-11-28T21:13:04.665Z,66.46
2022-11-28T21:15:41.129Z,66.40
2022-11-28T21:18:16.565Z,65.66
2022-11-28T21:20:49.546Z,66.29
2022-11-28T21:23:22.323Z,65.80
2022-11-28T21:25:55.287Z,65.78
2022-11-28T21:28:28.099Z,65.69
2022-11-28T21:31:05.112Z,66.09
2022-11-28T21:33:39.417Z,66.43
2022-11-28T21:36:13.060Z,66.09
2022-11-28T21:38:49.964Z,66.51
2022-11-28T21:41:23.562Z,66.73
2022-11-28T21:43:56.899Z,66.58
2022-11-28T21:46:29.868Z,66.75
2022-11-28T21:49:04.114Z,66.51
2022-11-28T21:51:36.997Z,66.96
2022-11-28T21:54:10.874Z,66.57
2022-11-28T21:56:43.794Z,66.63
2022-11-28T21:59:16.678Z,66.32
2022-11-28T22:01:49.599Z,66.33
2022-11-28T22:04:23.869Z,66.72
2022-11-28T22:06:56.826Z,66.66
2022-11-28T22:09:29.837Z,66.40
2022-11-28T22:12:02.701Z,66.79
2022-11-28T22:14:44.531Z,66.96
2022-11-28T22:17:17.264Z,67.19
2022-11-28T22:19:51.936Z,66.50
2022-11-28T22:22:27.402Z,66.64
2022-11-28T22:25:00.291Z,66.70
2022-11-28T22:27:35.483Z,66.39
2022-11-28T22:30:10.221Z,66.65
2022-11-28T22:32:43.089Z,66.73
2022-11-28T22:35:17.624Z,66.68
2022-11-28T22:37:50.478Z,66.83
2022-11-28T22:40:23.259Z,66.50
2022-11-28T22:42:56.883Z,66.79
2022-11-28T22:45:29.749Z,67.16
2022-11-28T22:48:02.734Z,66.71
2022-11-28T22:50:40.273Z,66.72
2022-11-28T22:53:13.200Z,66.55
2022-11-28T22:55:45.990Z,66.59
2022-11-28T22:58:19.037Z,66.50
2022-11-28T23:00:51.874Z,66.24
2022-11-28T23:03:24.890Z,67.09
2022-11-28T23:05:59.366Z,67.01
2022-11-28T23:08:32.364Z,66.96
2022-11-28T23:11:08.340Z,66.63
2022-11-28T23:13:41.985Z,66.35
2022-11-28T23:16:16.721Z,66.84
2022-11-28T23:18:51.045Z,66.52
2022-11-28T23:21:26.783Z,66.95
2022-11-28T23:23:59.707Z,66.74
2022-11-28T23:26:33.096Z,67.02
2022-11-28T23:29:07.590Z,67.07
2022-11-28T23:31:41.909Z,67.13
2022-11-28T23:34:15.582Z,67.18
2022-11-28T23:36:49.788Z,67.19
2022-11-28T23:39:23.893Z,66.89
2022-11-28T23:41:58.894Z,66.32
2022-11-28T23:44:32.303Z,66.54
2022-11-28T23:47:05.313Z,66.89
2022-11-28T23:49:38.135Z,66.59
2022-11-28T23:52:12.285Z,66.63
2022-11-28T23:54:45.763Z,66.59
2022-11-28T23:57:18.645Z,66.19
2022-11-28T23:59:51.500Z,66.85
